Time;durP1;ratioP1;P1;durP2;ratioP2;P2;SDS_P1;SDS_P2;PMS_P1;PMS_P2;Temp;Humidity;BMP_temperature;BMP_pressure;BME280_temperature;BME280_humidity;BME280_pressure;Samples;Min_cycle;Max_cycle;Signal;HPM_P1;HPM_P2
2022/04/22 00:01:10;;;;;;;1.50;1.40;;;24.60;51.60;;;;;;5033247;28;20454;-82
2022/04/22 00:03:37;;;;;;;1.40;1.30;;;24.60;51.60;;;;;;5033285;28;20533;-82
2022/04/22 00:06:04;;;;;;;1.97;1.67;;;24.70;51.70;;;;;;5033351;28;20443;-86
2022/04/22 00:08:31;;;;;;;1.33;1.20;;;24.60;51.60;;;;;;5033389;28;20446;-82
2022/04/22 00:13:42;;;;;;;1.50;1.40;;;24.60;51.70;;;;;;5033633;28;20785;-82
2022/04/22 00:16:11;;;;;;;1.37;1.27;;;24.50;51.60;;;;;;5033133;28;20494;-87
2022/04/22 00:18:38;;;;;;;1.87;1.73;;;24.60;52.30;;;;;;5033195;28;20943;-82
2022/04/22 00:21:06;;;;;;;1.50;1.40;;;24.50;51.60;;;;;;5037520;28;20443;-81
2022/04/22 00:23:33;;;;;;;1.33;1.23;;;24.50;51.60;;;;;;5037286;28;20446;-86
2022/04/22 00:25:59;;;;;;;1.30;1.20;;;24.60;51.60;;;;;;5037341;28;20439;-82
2022/04/22 00:28:26;;;;;;;1.60;1.50;;;24.50;51.60;;;;;;5037224;28;20449;-83
2022/04/22 00:30:53;;;;;;;1.20;1.10;;;24.50;51.60;;;;;;5036992;28;20466;-82
2022/04/22 00:33:21;;;;;;;1.53;1.27;;;24.50;51.60;;;;;;5036846;28;20449;-85
2022/04/22 00:35:48;;;;;;;1.30;1.20;;;24.50;51.60;;;;;;5037057;28;20486;-82
2022/04/22 00:38:15;;;;;;;1.50;1.17;;;24.50;52.20;;;;;;5037154;28;20438;-87
2022/04/22 00:40:43;;;;;;;1.50;1.40;;;24.50;51.60;;;;;;5036878;28;20438;-82
2022/04/22 00:43:17;;;;;;;1.40;1.30;;;24.50;51.60;;;;;;5036863;28;20486;-82
2022/04/22 00:45:45;;;;;;;1.63;1.53;;;24.60;51.70;;;;;;5037265;28;20797;-82
2022/04/22 00:48:12;;;;;;;1.57;1.20;;;24.50;51.60;;;;;;5036680;28;20446;-82
2022/04/22 00:50:41;;;;;;;1.30;1.20;;;24.50;51.60;;;;;;5036731;28;20434;-82
2022/04/22 00:53:08;;;;;;;1.60;1.43;;;24.50;51.60;;;;;;5036805;28;20454;-81
2022/04/22 00:55:38;;;;;;;1.30;1.20;;;24.50;51.60;;;;;;5036558;28;20489;-83
2022/04/22 00:58:05;;;;;;;2.50;1.30;;;24.50;51.60;;;;;;5036470;28;20508;-85
2022/04/22 01:00:32;;;;;;;1.30;1.20;;;24.50;51.60;;;;;;5036320;28;20970;-81
2022/04/22 01:02:59;;;;;;;1.20;1.10;;;24.50;51.60;;;;;;5036430;28;20438;-81
2022/04/22 01:10:58;;;;;;;1.40;1.30;;;24.50;51.70;;;;;;5036755;28;20426;-82
2022/04/22 01:13:25;;;;;;;1.30;1.20;;;24.50;51.70;;;;;;5036167;28;20431;-87
2022/04/22 01:15:52;;;;;;;1.53;1.43;;;24.50;51.70;;;;;;5036345;28;20989;-82
2022/04/22 01:18:19;;;;;;;1.17;1.07;;;24.50;51.70;;;;;;5036296;28;20478;-82
2022/04/22 01:20:46;;;;;;;2.07;1.50;;;24.50;51.60;;;;;;5036437;28;20439;-87
2022/04/22 01:23:14;;;;;;;1.43;1.33;;;24.50;51.70;;;;;;5035925;28;20930;-82
2022/04/22 01:25:41;;;;;;;1.30;1.20;;;24.50;51.60;;;;;;5036425;28;20445;-82
2022/04/22 01:28:09;;;;;;;1.40;1.20;;;24.50;51.60;;;;;;5035908;28;20457;-82
2022/04/22 01:30:36;;;;;;;1.30;1.20;;;24.50;51.60;;;;;;5035664;28;20462;-86
2022/04/22 01:33:03;;;;;;;2.43;1.57;;;24.50;51.60;;;;;;5035967;28;21489;-83
2022/04/22 01:35:30;;;;;;;1.50;1.40;;;24.50;51.60;;;;;;5036120;28;20485;-82
2022/04/22 01:37:56;;;;;;;1.20;1.10;;;24.50;51.60;;;;;;5035757;28;20508;-82
2022/04/22 01:40:24;;;;;;;1.63;1.53;;;24.50;51.60;;;;;;5035841;28;20449;-87
2022/04/22 01:42:51;;;;;;;1.53;1.43;;;24.50;51.60;;;;;;5035778;28;20438;-82
2022/04/22 01:45:18;;;;;;;1.30;1.20;;;24.50;51.60;;;;;;5035763;28;20447;-82
2022/04/22 01:47:45;;;;;;;1.30;1.10;;;24.50;51.60;;;;;;5035869;28;20442;-82
2022/04/22 01:50:12;;;;;;;1.57;1.23;;;24.50;51.60;;;;;;5035780;28;20446;-82
2022/04/22 01:52:40;;;;;;;1.40;1.30;;;24.50;51.60;;;;;;5035495;28;20952;-81
2022/04/22 01:55:08;;;;;;;1.40;1.30;;;24.50;51.60;;;;;;5035603;28;20482;-87
2022/04/22 01:57:36;;;;;;;1.40;1.30;;;24.50;51.60;;;;;;5034989;28;20478;-83
2022/04/22 02:00:06;;;;;;;2.17;1.50;;;24.50;51.60;;;;;;5035265;28;20462;-82
2022/04/22 02:02:33;;;;;;;1.70;1.60;;;24.50;51.60;;;;;;5035499;28;20435;-88
2022/04/22 02:05:00;;;;;;;1.50;1.40;;;24.50;51.60;;;;;;5035241;28;20439;-82
2022/04/22 02:07:27;;;;;;;1.40;1.20;;;24.50;51.60;;;;;;5035321;28;20447;-82
2022/04/22 02:09:54;;;;;;;1.47;1.37;;;24.50;51.60;;;;;;5035114;28;20453;-85
2022/04/22 02:12:21;;;;;;;1.83;1.30;;;24.50;51.60;;;;;;5035234;28;20434;-82
2022/04/22 02:14:49;;;;;;;1.70;1.60;;;24.50;51.60;;;;;;5034984;28;20446;-83
2022/04/22 02:17:16;;;;;;;1.60;1.50;;;24.50;51.60;;;;;;5035165;28;20779;-82
2022/04/22 02:19:42;;;;;;;1.60;1.50;;;24.50;51.60;;;;;;5035051;28;20930;-87
2022/04/22 02:22:09;;;;;;;1.47;1.37;;;24.60;51.70;;;;;;5035310;28;20522;-81
2022/04/22 02:24:36;;;;;;;1.37;1.27;;;24.50;51.60;;;;;;5035045;28;20450;-86
2022/04/22 02:29:49;;;;;;;1.60;1.50;;;24.50;51.60;;;;;;5035306;28;20454;-82
2022/04/22 02:32:16;;;;;;;1.47;1.37;;;24.50;51.60;;;;;;5034835;28;20930;-81
2022/04/22 02:34:43;;;;;;;1.83;1.73;;;24.50;51.60;;;;;;5035046;28;20443;-81
2022/04/22 02:37:10;;;;;;;1.40;1.30;;;24.50;51.60;;;;;;5034589;28;20501;-82
2022/04/22 02:39:37;;;;;;;1.40;1.30;;;24.50;51.60;;;;;;5034769;28;20449;-86
2022/04/22 02:47:34;;;;;;;1.70;1.60;;;24.50;51.60;;;;;;5034857;28;20980;-87
2022/04/22 02:50:01;;;;;;;1.33;1.23;;;24.40;51.60;;;;;;5034509;28;20449;-82
2022/04/22 02:52:28;;;;;;;1.73;1.57;;;24.50;51.60;;;;;;5034408;28;20449;-82
2022/04/22 02:54:55;;;;;;;1.60;1.50;;;24.40;51.60;;;;;;5034536;28;20431;-83
2022/04/22 02:57:22;;;;;;;1.57;1.47;;;24.50;51.60;;;;;;5034165;28;20494;-81
2022/04/22 02:59:50;;;;;;;1.47;1.37;;;24.50;51.60;;;;;;5034341;28;20465;-87
2022/04/22 03:02:17;;;;;;;1.40;1.30;;;24.50;51.60;;;;;;5034455;28;20445;-82
2022/04/22 03:04:44;;;;;;;1.50;1.40;;;24.50;51.60;;;;;;5034219;28;20922;-85
2022/04/22 03:07:10;;;;;;;1.40;1.30;;;24.50;51.60;;;;;;5034043;28;20451;-82
2022/04/22 03:09:37;;;;;;;1.30;1.20;;;24.40;51.50;;;;;;5034186;28;20439;-82
2022/04/22 03:12:05;;;;;;;1.80;1.70;;;24.50;51.60;;;;;;5034043;28;20542;-87
2022/04/22 03:14:32;;;;;;;1.50;1.40;;;24.50;51.60;;;;;;5034225;28;20814;-87
2022/04/22 03:17:02;;;;;;;1.70;1.60;;;24.50;51.60;;;;;;5033865;28;20513;-82
2022/04/22 03:19:29;;;;;;;1.60;1.50;;;24.50;51.60;;;;;;5033952;28;20454;-86
2022/04/22 03:21:56;;;;;;;1.63;1.37;;;24.50;51.60;;;;;;5034093;28;20465;-82
2022/04/22 03:24:23;;;;;;;1.70;1.60;;;24.50;51.60;;;;;;5034067;28;20449;-82
2022/04/22 03:26:49;;;;;;;2.00;1.80;;;24.50;51.60;;;;;;5034093;28;20438;-85
2022/04/22 03:29:16;;;;;;;1.70;1.60;;;24.40;51.50;;;;;;5033761;28;20439;-85
2022/04/22 03:31:43;;;;;;;1.60;1.50;;;24.50;51.60;;;;;;5033843;28;20448;-83
2022/04/22 03:34:11;;;;;;;1.50;1.40;;;24.50;51.60;;;;;;5033976;28;20443;-82
2022/04/22 03:36:38;;;;;;;1.63;1.53;;;24.50;51.60;;;;;;5033626;28;20565;-83
2022/04/22 03:39:05;;;;;;;1.40;1.30;;;24.50;51.60;;;;;;5033879;28;20443;-81
2022/04/22 03:41:32;;;;;;;1.80;1.70;;;24.50;51.60;;;;;;5034149;28;20442;-82
2022/04/22 03:43:59;;;;;;;1.53;1.43;;;24.40;51.60;;;;;;5033642;28;20450;-83
2022/04/22 03:46:26;;;;;;;2.03;1.70;;;24.40;51.60;;;;;;5033554;28;20431;-82
2022/04/22 03:48:55;;;;;;;1.50;1.40;;;24.40;51.60;;;;;;5032931;28;20442;-86
2022/04/22 03:51:23;;;;;;;1.70;1.60;;;24.40;51.60;;;;;;5033281;28;20449;-81
2022/04/22 03:53:50;;;;;;;1.67;1.57;;;24.40;51.50;;;;;;5033322;28;20435;-84
2022/04/22 03:59:02;;;;;;;1.67;1.57;;;24.40;51.60;;;;;;5033305;28;20418;-82
2022/04/22 04:01:28;;;;;;;1.73;1.63;;;24.40;51.60;;;;;;5033338;28;20500;-81
2022/04/22 04:03:55;;;;;;;1.97;1.87;;;24.40;51.60;;;;;;5033295;28;20445;-87
2022/04/22 04:06:24;;;;;;;2.00;1.90;;;24.40;51.60;;;;;;5033195;28;20446;-81
2022/04/22 04:17:02;;;;;;;1.80;1.70;;;24.40;51.60;;;;;;5033527;28;20489;-82
2022/04/22 04:24:58;;;;;;;1.50;1.40;;;24.40;51.70;;;;;;5033528;28;20476;-82
2022/04/22 04:27:25;;;;;;;1.80;1.70;;;24.40;51.70;;;;;;5033129;28;20434;-82
2022/04/22 04:29:52;;;;;;;1.77;1.67;;;24.40;51.70;;;;;;5033070;28;20549;-82
2022/04/22 04:32:19;;;;;;;2.70;2.03;;;24.40;51.70;;;;;;5033438;28;20435;-82
2022/04/22 04:34:45;;;;;;;1.80;1.70;;;24.40;51.70;;;;;;5033320;28;20445;-84
2022/04/22 04:37:14;;;;;;;1.63;1.53;;;24.40;51.70;;;;;;5033151;28;20486;-82
2022/04/22 04:39:40;;;;;;;1.90;1.80;;;24.40;51.70;;;;;;5033142;28;21035;-85
2022/04/22 04:42:08;;;;;;;1.80;1.70;;;24.40;51.70;;;;;;5032914;28;20446;-86
2022/04/22 04:44:36;;;;;;;1.80;1.70;;;24.40;51.70;;;;;;5033067;28;20450;-81
2022/04/22 04:47:02;;;;;;;1.93;1.83;;;24.40;52.30;;;;;;5033020;28;20451;-85
2022/04/22 04:49:29;;;;;;;1.63;1.53;;;24.40;51.70;;;;;;5032867;28;20797;-82
2022/04/22 04:51:57;;;;;;;1.90;1.80;;;24.40;51.70;;;;;;5032785;28;20457;-87
2022/04/22 04:54:25;;;;;;;1.87;1.77;;;24.40;51.70;;;;;;5032843;28;20450;-82
2022/04/22 04:56:52;;;;;;;1.87;1.77;;;24.40;51.70;;;;;;5032731;28;20486;-82
2022/04/22 04:59:18;;;;;;;2.20;2.10;;;24.40;51.80;;;;;;5032710;28;20500;-82
2022/04/22 05:01:45;;;;;;;2.20;2.10;;;24.40;52.40;;;;;;5032652;28;20446;-84
2022/04/22 05:04:12;;;;;;;2.07;1.93;;;24.40;51.80;;;;;;5032486;28;20442;-81
2022/04/22 05:06:40;;;;;;;1.80;1.70;;;24.40;51.80;;;;;;5035318;28;20443;-81
2022/04/22 05:09:07;;;;;;;3.50;2.30;;;24.40;51.80;;;;;;5049779;28;20448;-85
2022/04/22 05:11:35;;;;;;;1.70;1.60;;;24.40;51.80;;;;;;5056004;28;20445;-87
2022/04/22 05:14:03;;;;;;;1.97;1.87;;;24.40;51.80;;;;;;5055944;28;20933;-81
2022/04/22 05:16:30;;;;;;;2.03;1.93;;;24.40;51.80;;;;;;5055614;28;20477;-82
2022/04/22 05:18:57;;;;;;;2.00;1.90;;;24.40;51.80;;;;;;5056128;28;20465;-85
2022/04/22 05:21:23;;;;;;;2.00;1.90;;;24.40;51.80;;;;;;5056097;28;20464;-84
2022/04/22 05:23:50;;;;;;;2.07;1.90;;;24.40;51.80;;;;;;5056247;28;20445;-84
2022/04/22 05:26:17;;;;;;;1.83;1.73;;;24.40;51.80;;;;;;5056164;28;20430;-83
2022/04/22 05:28:45;;;;;;;1.60;1.50;;;24.40;51.80;;;;;;5055821;28;20441;-81
2022/04/22 05:33:56;;;;;;;2.90;2.70;;;24.30;51.80;;;;;;5055775;28;20787;-81
2022/04/22 05:36:22;;;;;;;2.40;2.17;;;24.20;51.60;;;;;;5055776;28;20493;-84
2022/04/22 05:38:52;;;;;;;2.50;2.30;;;24.20;51.50;;;;;;5055887;28;20449;-82
2022/04/22 05:41:19;;;;;;;2.17;2.07;;;24.20;51.60;;;;;;5055912;28;20442;-81
2022/04/22 05:43:47;;;;;;;4.53;2.90;;;24.20;52.40;;;;;;5055823;28;20933;-82
2022/04/22 05:46:14;;;;;;;3.83;2.30;;;24.20;51.60;;;;;;5055834;28;20450;-82
2022/04/22 05:48:41;;;;;;;2.27;2.10;;;24.20;51.70;;;;;;5055566;28;20438;-87
2022/04/22 05:51:08;;;;;;;2.20;2.03;;;24.20;52.00;;;;;;5055639;28;20440;-83
2022/04/22 05:53:34;;;;;;;2.27;2.10;;;24.20;52.00;;;;;;5055475;28;20536;-86
2022/04/22 05:56:01;;;;;;;2.33;2.17;;;24.20;52.00;;;;;;5055410;28;20444;-82
2022/04/22 05:58:28;;;;;;;2.60;2.40;;;24.20;52.20;;;;;;5055137;28;20469;-82
2022/04/22 06:00:56;;;;;;;2.27;2.07;;;24.30;52.30;;;;;;5055377;28;20462;-81
2022/04/22 06:03:23;;;;;;;2.37;2.10;;;24.30;52.30;;;;;;5055425;28;20438;-80
2022/04/22 06:05:50;;;;;;;2.07;1.80;;;24.30;52.30;;;;;;5055725;28;20449;-80
2022/04/22 06:11:00;;;;;;;2.13;2.03;;;24.30;52.40;;;;;;5055350;28;20416;-80
2022/04/22 06:13:27;;;;;;;2.60;1.57;;;24.30;52.40;;;;;;5055062;28;20438;-85
2022/04/22 06:15:55;;;;;;;4.00;2.13;;;24.30;52.30;;;;;;5054541;28;20440;-82
2022/04/22 06:18:23;;;;;;;1.97;1.87;;;24.30;52.30;;;;;;5068951;28;20444;-81
2022/04/22 06:20:50;;;;;;;2.73;2.53;;;24.30;52.30;;;;;;5075087;28;20566;-80
2022/04/22 06:23:16;;;;;;;4.30;2.00;;;24.30;52.40;;;;;;5074914;28;20441;-80
2022/04/22 06:25:46;;;;;;;2.30;2.20;;;24.30;52.40;;;;;;5075056;28;20441;-80
2022/04/22 06:28:13;;;;;;;2.03;1.93;;;24.30;52.50;;;;;;5075055;28;20473;-85
2022/04/22 06:30:40;;;;;;;2.53;2.33;;;24.30;53.10;;;;;;5074648;28;20826;-82
2022/04/22 06:33:09;;;;;;;2.17;2.00;;;24.30;52.50;;;;;;5066879;28;20441;-80
2022/04/22 06:35:37;;;;;;;2.50;2.30;;;24.30;52.50;;;;;;5073903;28;20444;-86
2022/04/22 06:38:08;;;;;;;2.07;1.97;;;24.30;52.60;;;;;;5054533;28;20496;-80
2022/04/22 06:46:05;;;;;;;3.20;2.50;;;24.40;52.70;;;;;;5046212;28;20932;-88
2022/04/22 06:48:34;;;;;;;2.10;2.00;;;24.30;52.50;;;;;;5054080;28;20444;-80
2022/04/22 06:51:06;;;;;;;1.80;1.70;;;24.30;52.00;;;;;;5054757;28;20441;-81
2022/04/22 06:53:34;;;;;;;1.93;1.83;;;24.30;52.20;;;;;;5054339;28;20446;-82
2022/04/22 06:56:02;;;;;;;3.23;3.00;;;24.30;52.30;;;;;;5054216;28;20437;-81
2022/04/22 06:58:32;;;;;;;7.97;3.37;;;24.30;52.30;;;;;;5052839;28;20551;-81
2022/04/22 07:00:59;;;;;;;2.50;2.30;;;24.30;52.40;;;;;;5052890;28;20469;-81
2022/04/22 07:03:26;;;;;;;2.00;1.90;;;24.30;52.60;;;;;;5053465;28;20953;-81
2022/04/22 07:05:54;;;;;;;3.07;1.90;;;24.40;52.70;;;;;;5054123;28;20477;-81
2022/04/22 07:08:21;;;;;;;2.50;2.30;;;24.40;52.70;;;;;;5054156;28;20453;-82
2022/04/22 07:10:50;;;;;;;2.10;2.00;;;24.40;52.60;;;;;;5054034;28;20791;-87
2022/04/22 07:13:18;;;;;;;2.50;2.30;;;24.40;52.60;;;;;;5053949;28;20536;-85
2022/04/22 07:15:45;;;;;;;2.90;2.53;;;24.40;52.50;;;;;;5054079;28;20442;-85
2022/04/22 07:18:13;;;;;;;2.70;2.33;;;24.40;52.40;;;;;;5053887;28;20482;-84
2022/04/22 07:20:41;;;;;;;1.93;1.83;;;24.40;52.30;;;;;;5054029;28;20441;-85
2022/04/22 07:23:10;;;;;;;2.00;1.90;;;24.40;52.30;;;;;;5054005;28;20444;-84
2022/04/22 07:25:38;;;;;;;2.47;2.27;;;24.40;52.30;;;;;;5053632;28;20441;-83
2022/04/22 07:28:05;;;;;;;2.80;1.87;;;24.40;52.40;;;;;;5053293;28;20940;-84
2022/04/22 07:30:33;;;;;;;2.13;1.90;;;24.40;52.40;;;;;;5054105;28;20789;-83
2022/04/22 07:33:00;;;;;;;2.93;2.17;;;24.40;52.30;;;;;;5053712;28;20434;-82
2022/04/22 07:35:27;;;;;;;2.80;2.60;;;24.40;52.30;;;;;;5053623;28;20943;-86
2022/04/22 07:37:55;;;;;;;2.70;2.50;;;24.40;52.30;;;;;;5053534;28;20481;-82
2022/04/22 07:40:24;;;;;;;2.40;2.20;;;24.40;52.20;;;;;;5053615;28;20445;-83
2022/04/22 07:48:23;;;;;;;2.77;2.10;;;24.40;52.20;;;;;;5053478;28;20430;-84
2022/04/22 07:50:51;;;;;;;2.63;2.43;;;24.40;52.30;;;;;;5053689;28;20448;-85
2022/04/22 07:53:18;;;;;;;2.67;2.10;;;24.40;52.50;;;;;;5053608;28;20448;-84
2022/04/22 07:55:47;;;;;;;2.70;2.43;;;24.40;52.30;;;;;;5053506;28;20449;-85
2022/04/22 07:58:17;;;;;;;2.40;2.30;;;24.40;52.20;;;;;;5053159;28;20485;-84
2022/04/22 08:00:46;;;;;;;2.00;1.90;;;24.40;52.10;;;;;;5047832;28;20454;-82
2022/04/22 08:03:13;;;;;;;2.10;1.90;;;24.40;52.10;;;;;;5052912;28;20441;-81
2022/04/22 08:05:40;;;;;;;2.33;2.13;;;24.40;52.00;;;;;;5053070;28;20445;-86
2022/04/22 08:08:07;;;;;;;2.13;2.00;;;24.40;52.00;;;;;;5053229;28;20800;-82
2022/04/22 08:10:34;;;;;;;1.97;1.87;;;24.40;52.00;;;;;;5053280;28;20448;-83
2022/04/22 08:13:04;;;;;;;2.40;2.27;;;24.40;52.00;;;;;;5053407;28;20442;-86
2022/04/22 08:15:31;;;;;;;2.17;1.97;;;24.40;52.10;;;;;;5052923;28;21006;-83
2022/04/22 08:17:57;;;;;;;2.50;2.30;;;24.40;52.10;;;;;;5052279;28;20481;-81
2022/04/22 08:20:24;;;;;;;2.87;1.87;;;24.40;52.20;;;;;;5053161;28;20442;-81
2022/04/22 08:22:51;;;;;;;2.40;2.20;;;24.50;52.20;;;;;;5052598;28;20931;-82
2022/04/22 08:25:18;;;;;;;2.17;1.90;;;24.50;52.20;;;;;;5051664;28;20442;-83
2022/04/22 08:27:46;;;;;;;2.70;1.90;;;24.50;52.20;;;;;;5050616;28;20467;-83
2022/04/22 08:30:15;;;;;;;2.63;1.80;;;24.50;52.30;;;;;;5051412;28;20515;-86
2022/04/22 08:32:42;;;;;;;2.37;1.73;;;24.50;52.20;;;;;;5053636;28;20438;-88
2022/04/22 08:35:09;;;;;;;2.20;2.10;;;24.60;52.40;;;;;;5052027;28;20442;-84
2022/04/22 08:37:37;;;;;;;2.00;1.90;;;24.50;52.30;;;;;;5052510;28;20481;-86
2022/04/22 08:40:05;;;;;;;2.57;2.37;;;24.60;52.40;;;;;;5053219;28;20556;-89
2022/04/22 08:42:34;;;;;;;2.37;2.20;;;24.50;52.30;;;;;;5056508;28;20438;-88
2022/04/22 08:45:01;;;;;;;2.17;1.97;;;24.60;52.40;;;;;;5056366;28;20441;-86
2022/04/22 08:50:16;;;;;;;1.83;1.73;;;24.70;52.40;;;;;;5056498;28;20451;-82
2022/04/22 08:52:44;;;;;;;2.03;1.93;;;24.60;52.40;;;;;;5056597;28;20512;-82
2022/04/22 08:55:12;;;;;;;3.93;2.13;;;24.60;52.40;;;;;;5056584;28;20541;-82
2022/04/22 08:57:41;;;;;;;2.10;2.00;;;24.60;52.50;;;;;;5055965;28;20489;-82
2022/04/22 09:00:09;;;;;;;2.20;2.00;;;24.60;52.50;;;;;;5056226;28;20461;-88
2022/04/22 09:02:38;;;;;;;3.97;3.10;;;24.60;52.60;;;;;;5056615;28;20448;-89
2022/04/22 09:05:08;;;;;;;2.83;2.63;;;24.70;52.30;;;;;;5056877;28;20449;-82
2022/04/22 09:07:37;;;;;;;3.87;2.40;;;24.70;52.00;;;;;;5056715;28;20448;-84
2022/04/22 09:10:05;;;;;;;3.10;2.90;;;24.70;51.90;;;;;;5057099;28;20864;-86
2022/04/22 09:12:34;;;;;;;3.53;2.80;;;24.70;51.90;;;;;;5056944;28;20521;-86
2022/04/22 09:15:01;;;;;;;2.50;2.30;;;24.70;52.10;;;;;;5056489;28;20532;-86
2022/04/22 09:17:30;;;;;;;3.00;2.80;;;24.70;52.10;;;;;;5056436;28;20469;-86
2022/04/22 09:19:58;;;;;;;3.33;3.13;;;24.60;52.00;;;;;;5056607;28;20446;-94
2022/04/22 09:22:27;;;;;;;3.10;2.57;;;24.50;52.00;;;;;;5058621;28;21011;-95
2022/04/22 09:24:55;;;;;;;3.20;2.90;;;24.50;52.10;;;;;;5057840;28;20508;-88
2022/04/22 09:27:32;;;;;;;3.50;3.30;;;24.40;52.20;;;;;;5056970;28;20441;-94
2022/04/22 09:30:00;;;;;;;2.37;2.20;;;24.50;52.20;;;;;;5056875;28;20457;-89
2022/04/22 09:32:31;;;;;;;2.63;2.43;;;24.40;52.20;;;;;;5056202;28;20441;-89
2022/04/22 09:35:09;;;;;;;2.30;2.20;;;24.40;52.20;;;;;;5056428;28;20839;-88
2022/04/22 09:43:23;;;;;;;4.23;2.87;;;24.50;52.20;;;;;;5056232;28;20460;-87
2022/04/22 09:45:52;;;;;;;5.53;2.47;;;24.50;52.50;;;;;;5056422;28;20483;-85
2022/04/22 09:48:20;;;;;;;2.40;2.20;;;24.50;52.50;;;;;;5056008;28;20955;-85
2022/04/22 09:50:52;;;;;;;2.23;2.13;;;24.50;52.50;;;;;;5055658;28;20453;-85
2022/04/22 09:53:32;;;;;;;2.60;2.40;;;24.50;52.50;;;;;;5055809;28;20449;-89
2022/04/22 09:55:59;;;;;;;2.97;2.30;;;24.50;52.50;;;;;;5056262;28;20450;-90
2022/04/22 09:58:27;;;;;;;2.83;2.63;;;24.50;52.40;;;;;;5056479;28;20567;-88
2022/04/22 10:01:00;;;;;;;3.07;2.87;;;24.50;52.40;;;;;;5055388;28;20499;-87
2022/04/22 10:03:29;;;;;;;2.87;2.63;;;24.50;52.20;;;;;;5055703;28;20462;-88
2022/04/22 10:05:58;;;;;;;2.33;2.13;;;24.60;52.00;;;;;;5037919;28;20526;-87
2022/04/22 10:08:28;;;;;;;2.30;2.20;;;24.60;52.00;;;;;;5055639;28;20441;-90
2022/04/22 10:10:58;;;;;;;7.30;2.43;;;24.60;52.10;;;;;;5055739;28;20783;-86
2022/04/22 10:13:33;;;;;;;2.80;2.60;;;24.50;52.10;;;;;;5055510;28;20465;-85
2022/04/22 10:16:00;;;;;;;2.70;2.50;;;24.50;52.20;;;;;;5055951;28;20766;-86
2022/04/22 10:18:28;;;;;;;2.50;2.40;;;24.50;52.20;;;;;;5054990;28;20485;-85
2022/04/22 10:20:58;;;;;;;4.97;4.50;;;24.50;52.30;;;;;;5054804;28;20480;-84
2022/04/22 10:23:26;;;;;;;4.37;3.40;;;24.50;52.30;;;;;;5054902;28;20425;-86
2022/04/22 10:25:53;;;;;;;3.13;2.93;;;24.50;52.30;;;;;;5055402;28;20449;-86
2022/04/22 10:28:21;;;;;;;2.80;2.60;;;24.50;52.30;;;;;;5054996;28;20430;-85
2022/04/22 10:30:50;;;;;;;2.87;2.67;;;24.50;52.10;;;;;;5055253;28;20504;-91
2022/04/22 10:33:17;;;;;;;2.40;2.20;;;24.50;52.10;;;;;;5055231;28;20459;-88
2022/04/22 10:35:46;;;;;;;2.90;2.70;;;24.50;52.00;;;;;;5055139;28;20441;-90
2022/04/22 10:38:31;;;;;;;2.90;2.70;;;24.50;52.10;;;;;;5037239;28;20515;-87
2022/04/22 10:41:02;;;;;;;3.23;2.80;;;24.60;52.10;;;;;;5055133;28;20491;-88
2022/04/22 10:43:29;;;;;;;2.67;2.47;;;24.70;52.40;;;;;;5054866;28;20429;-87
2022/04/22 10:48:42;;;;;;;2.80;2.30;;;24.50;52.10;;;;;;5054772;28;20497;-87
2022/04/22 10:51:13;;;;;;;2.53;2.33;;;24.50;52.20;;;;;;5054697;28;20445;-86
2022/04/22 10:53:49;;;;;;;2.33;2.20;;;24.50;52.30;;;;;;5054510;28;20489;-87
2022/04/22 10:56:35;;;;;;;2.73;2.50;;;24.50;52.30;;;;;;5054544;28;20437;-88
2022/04/22 12:10:12;;;;;;;2.93;2.73;;;24.20;52.50;;;;;;5034385;28;20422;-91
2022/04/22 14:50:43;;;;;;;19.83;8.80;;;24.70;63.00;;;;;;5014289;28;20470;-83
2022/04/22 14:53:10;;;;;;;21.73;8.17;;;24.70;63.00;;;;;;5027664;28;20442;-86
2022/04/22 14:55:38;;;;;;;18.17;7.40;;;24.60;62.60;;;;;;5034582;28;20438;-85
2022/04/22 14:58:05;;;;;;;16.43;8.80;;;24.70;63.00;;;;;;5017258;28;20483;-85
2022/04/22 15:00:34;;;;;;;15.83;8.63;;;24.70;62.80;;;;;;5033520;28;20459;-86
2022/04/22 15:03:02;;;;;;;13.63;7.47;;;24.70;62.40;;;;;;5034468;28;20453;-85
2022/04/22 15:05:29;;;;;;;9.97;5.60;;;24.70;62.00;;;;;;5034240;28;20495;-85
2022/04/22 15:07:58;;;;;;;15.63;5.60;;;24.70;60.90;;;;;;5034189;28;20525;-84
2022/04/22 15:10:25;;;;;;;10.73;4.50;;;24.70;60.00;;;;;;5034496;28;20498;-85
2022/04/22 15:12:52;;;;;;;7.07;5.30;;;24.70;59.40;;;;;;5034116;28;20430;-84
2022/04/22 15:15:20;;;;;;;6.40;4.80;;;24.70;59.30;;;;;;5034206;28;20449;-85
2022/04/22 15:26:02;;;;;;;8.90;3.63;;;24.70;58.40;;;;;;5034224;28;20431;-84
2022/04/22 15:28:29;;;;;;;6.37;3.70;;;24.60;58.30;;;;;;5033716;28;20541;-84
2022/04/22 15:31:12;;;;;;;5.20;4.10;;;24.60;57.90;;;;;;5033703;28;20439;-84
2022/04/22 15:33:39;;;;;;;6.03;4.33;;;24.70;58.10;;;;;;5034038;28;20522;-85
2022/04/22 15:36:07;;;;;;;5.53;4.43;;;24.70;57.90;;;;;;5034177;28;20434;-84
2022/04/22 15:38:35;;;;;;;4.70;4.27;;;24.70;58.00;;;;;;5033767;28;20493;-84
2022/04/22 15:41:02;;;;;;;4.23;3.83;;;24.60;58.00;;;;;;5033955;28;20450;-84
2022/04/22 15:43:29;;;;;;;4.37;4.03;;;24.60;58.20;;;;;;5033967;28;20442;-86
2022/04/22 15:45:56;;;;;;;3.63;3.43;;;24.60;57.70;;;;;;5033659;28;20803;-85
2022/04/22 15:48:22;;;;;;;3.27;3.00;;;24.50;58.00;;;;;;5033738;28;20504;-87
2022/04/22 15:50:49;;;;;;;3.83;3.53;;;24.60;58.30;;;;;;5033579;28;20453;-87
2022/04/22 15:53:16;;;;;;;7.03;3.50;;;24.60;58.50;;;;;;5033607;28;20454;-88
2022/04/22 15:55:44;;;;;;;3.30;3.03;;;24.60;59.40;;;;;;5033524;28;20439;-86
2022/04/22 15:58:11;;;;;;;4.90;3.70;;;24.60;59.00;;;;;;5033223;28;21101;-86
2022/04/22 16:00:38;;;;;;;3.53;3.23;;;24.60;59.70;;;;;;5033365;28;21003;-89
2022/04/22 16:03:06;;;;;;;3.70;3.40;;;24.60;59.90;;;;;;5033695;28;20447;-86
2022/04/22 16:05:34;;;;;;;3.73;3.43;;;24.60;60.40;;;;;;5033335;28;20451;-87
2022/04/22 16:08:01;;;;;;;3.30;3.10;;;24.60;62.40;;;;;;5033598;28;20453;-88
2022/04/22 16:10:28;;;;;;;3.83;3.03;;;24.60;64.40;;;;;;5033665;28;20822;-85
2022/04/22 16:15:40;;;;;;;3.73;3.43;;;24.70;81.50;;;;;;5033249;28;20438;-87
2022/04/22 16:18:09;;;;;;;2.90;2.60;;;24.60;85.50;;;;;;5033541;28;20445;-87
2022/04/22 16:20:38;;;;;;;3.20;3.00;;;24.60;83.70;;;;;;5033219;28;20447;-86
2022/04/22 16:23:05;;;;;;;4.20;3.73;;;24.60;83.60;;;;;;5033109;28;20474;-88
2022/04/22 16:25:32;;;;;;;3.00;2.80;;;24.70;85.50;;;;;;5033140;28;20439;-87
2022/04/22 16:28:01;;;;;;;3.90;3.60;;;24.60;83.50;;;;;;5033446;28;20817;-86
2022/04/22 16:30:31;;;;;;;4.27;3.30;;;24.50;82.30;;;;;;5033466;28;21005;-88
2022/04/22 16:32:58;;;;;;;3.80;3.43;;;24.60;82.10;;;;;;5033421;28;20482;-86
2022/04/22 16:35:25;;;;;;;3.20;3.00;;;24.50;80.60;;;;;;5033282;28;20438;-94
2022/04/22 16:37:52;;;;;;;5.07;3.37;;;24.40;81.30;;;;;;5033550;28;20809;-95
2022/04/22 16:40:19;;;;;;;3.03;2.73;;;24.40;82.40;;;;;;5034186;28;20483;-92
2022/04/22 16:42:46;;;;;;;3.10;2.90;;;24.40;81.50;;;;;;5034122;28;20443;-90
2022/04/22 16:45:14;;;;;;;3.10;2.87;;;24.40;79.70;;;;;;5033568;28;20544;-85
2022/04/22 16:47:41;;;;;;;3.07;2.87;;;24.40;76.70;;;;;;5033375;28;20461;-92
2022/04/22 16:50:10;;;;;;;3.03;2.63;;;24.40;77.10;;;;;;5033330;28;20446;-94
2022/04/22 16:52:37;;;;;;;3.03;2.83;;;24.40;78.20;;;;;;5034015;28;20477;-83
2022/04/22 16:55:05;;;;;;;3.23;3.03;;;24.40;77.90;;;;;;5052609;28;20442;-91
2022/04/22 16:57:31;;;;;;;4.57;2.80;;;24.40;78.70;;;;;;5052393;28;20441;-92
2022/04/22 16:59:58;;;;;;;3.23;3.03;;;24.50;78.50;;;;;;5052595;28;20501;-83
2022/04/22 17:02:28;;;;;;;2.80;2.60;;;24.50;78.40;;;;;;5055677;28;20441;-83
2022/04/22 17:04:55;;;;;;;3.27;3.00;;;24.50;78.00;;;;;;5056814;28;20963;-89
2022/04/22 17:07:22;;;;;;;3.10;2.90;;;24.50;78.30;;;;;;5056829;28;20932;-89
2022/04/22 17:09:49;;;;;;;3.20;2.90;;;24.50;78.10;;;;;;5056647;28;20952;-93
2022/04/22 17:12:16;;;;;;;3.13;2.80;;;24.50;78.40;;;;;;5056657;28;20442;-91
2022/04/22 17:23:00;;;;;;;2.60;2.40;;;24.50;78.80;;;;;;5056522;28;21040;-83
2022/04/22 17:25:28;;;;;;;4.43;2.90;;;24.50;78.80;;;;;;5056519;28;20952;-89
2022/04/22 17:27:55;;;;;;;3.03;2.83;;;24.50;78.90;;;;;;5055828;28;20472;-96
2022/04/22 17:30:22;;;;;;;3.33;3.03;;;24.50;78.80;;;;;;5045760;28;21262;-89
2022/04/22 17:32:50;;;;;;;2.97;2.73;;;24.50;78.60;;;;;;5036800;28;20445;-93
2022/04/22 17:35:17;;;;;;;2.37;2.27;;;24.50;78.30;;;;;;5044351;28;20445;-81
2022/04/22 17:37:44;;;;;;;2.90;2.70;;;24.50;78.10;;;;;;5054051;28;20445;-94
2022/04/22 17:40:13;;;;;;;2.70;2.50;;;24.50;78.20;;;;;;5056764;28;20481;-92
2022/04/22 17:42:40;;;;;;;3.00;2.80;;;24.50;78.30;;;;;;5056778;28;20567;-94
2022/04/22 17:45:08;;;;;;;2.70;2.53;;;24.50;78.50;;;;;;5048871;28;20800;-94
2022/04/22 17:47:35;;;;;;;2.77;2.30;;;24.50;78.50;;;;;;5056189;28;20496;-93
2022/04/22 17:50:04;;;;;;;2.67;2.47;;;24.50;78.40;;;;;;5057106;28;20445;-94
2022/04/22 17:52:31;;;;;;;3.57;2.77;;;24.50;79.10;;;;;;5056169;28;20437;-94
2022/04/22 17:54:58;;;;;;;2.80;2.50;;;24.60;79.00;;;;;;5056519;28;20450;-93
2022/04/22 17:57:24;;;;;;;3.20;2.50;;;24.50;78.90;;;;;;5053523;28;20452;-86